Time;durP1;ratioP1;P1;durP2;ratioP2;P2;SDS_P1;SDS_P2;PMS_P1;PMS_P2;Temp;Humidity;BMP_temperature;BMP_pressure;BME280_temperature;BME280_humidity;BME280_pressure;Samples;Min_cycle;Max_cycle;Signal;HPM_P1;HPM_P2
2023/04/18 00:03:40;;;;;;;7.60;6.90;;;;;;;11.49;49.89;98458.25;8281188;28;20235;-72
2023/04/18 00:07:44;;;;;;;7.03;6.33;;;;;;;10.87;50.33;98360.50;8280900;28;20230;-72
2023/04/18 00:11:48;;;;;;;7.60;6.90;;;;;;;11.43;50.31;98452.50;8281350;28;20223;-72
2023/04/18 00:15:53;;;;;;;8.40;7.27;;;;;;;11.51;50.18;98458.19;8281381;28;20560;-72
2023/04/18 00:19:57;;;;;;;7.70;6.80;;;;;;;11.53;50.25;98458.97;8281079;28;20237;-72
2023/04/18 00:23:59;;;;;;;8.40;7.23;;;;;;;11.19;50.68;98457.72;8281238;28;20228;-72
2023/04/18 00:28:04;;;;;;;8.07;7.37;;;;;;;11.53;49.90;98446.00;8280831;28;20231;-72
2023/04/18 00:32:06;;;;;;;7.40;6.80;;;;;;;11.49;50.03;98458.25;8280851;28;20227;-72
2023/04/18 00:36:09;;;;;;;7.83;7.03;;;;;;;11.49;50.12;98450.47;8280803;28;20250;-72
2023/04/18 00:40:12;;;;;;;7.67;6.83;;;;;;;11.14;50.05;98434.59;8280652;28;20235;-72
2023/04/18 00:44:16;;;;;;;7.73;6.93;;;;;;;11.22;50.09;98438.63;8284255;28;20227;-72
2023/04/18 00:48:19;;;;;;;8.37;7.10;;;;;;;11.34;49.91;98444.16;8286321;28;20266;-72
2023/04/18 00:52:22;;;;;;;7.27;6.63;;;;;;;11.40;49.87;98445.66;8286516;28;20234;-72
2023/04/18 00:56:25;;;;;;;7.97;7.17;;;;;;;11.14;49.72;98425.97;8286522;28;20397;-72
2023/04/18 01:00:32;;;;;;;8.23;6.80;;;;;;;10.83;49.58;98343.38;8286400;28;20413;-72
2023/04/18 01:04:34;;;;;;;7.47;6.70;;;;;;;11.21;50.04;98437.75;8286129;28;20235;-72
2023/04/18 01:08:37;;;;;;;7.27;6.57;;;;;;;11.28;50.30;98441.81;8286138;28;20250;-72
2023/04/18 01:12:40;;;;;;;7.73;6.70;;;;;;;11.37;50.32;98437.19;8285986;28;20227;-72
2023/04/18 01:16:46;;;;;;;7.40;6.70;;;;;;;11.31;50.41;98439.09;8285949;28;20231;-72
2023/04/18 01:20:49;;;;;;;7.80;7.10;;;;;;;11.23;50.41;98429.94;8285925;28;20227;-72
2023/04/18 01:24:53;;;;;;;7.27;6.57;;;;;;;11.15;50.38;98433.66;8285825;28;20234;-72
2023/04/18 01:28:56;;;;;;;7.27;6.57;;;;;;;11.32;50.20;98424.38;8285334;28;20546;-72
2023/04/18 01:33:00;;;;;;;8.40;6.97;;;;;;;11.23;50.19;98428.19;8285426;28;20226;-72
2023/04/18 01:37:03;;;;;;;7.77;6.97;;;;;;;11.14;50.25;98418.19;8285225;28;20234;-72
2023/04/18 01:41:08;;;;;;;7.47;6.77;;;;;;;11.31;50.31;98422.72;8285133;28;20227;-72
2023/04/18 01:45:11;;;;;;;7.40;6.77;;;;;;;11.12;50.66;98414.81;8284852;28;20226;-72
2023/04/18 01:49:14;;;;;;;8.23;6.87;;;;;;;11.20;50.72;98414.50;8284815;28;20243;-72
2023/04/18 01:53:18;;;;;;;7.97;7.07;;;;;;;10.95;51.08;98418.91;8284073;28;20424;-73
2023/04/18 01:57:22;;;;;;;10.40;7.03;;;;;;;11.07;50.30;98411.56;8284712;28;20235;-72
2023/04/18 02:01:25;;;;;;;7.97;7.27;;;;;;;11.07;50.74;98404.63;8284268;28;20227;-72
2023/04/18 02:05:29;;;;;;;9.67;7.27;;;;;;;11.08;51.17;98406.31;8284177;28;20242;-72
2023/04/18 02:09:32;;;;;;;8.23;7.17;;;;;;;11.09;51.14;98405.41;8284341;28;20249;-72
2023/04/18 02:13:36;;;;;;;9.63;6.93;;;;;;;10.92;51.27;98397.44;8284105;28;20227;-72
2023/04/18 02:17:40;;;;;;;7.47;6.67;;;;;;;11.19;51.08;98394.66;8283869;28;20287;-72
2023/04/18 02:21:43;;;;;;;8.00;7.20;;;;;;;10.97;51.62;98403.31;8283600;28;20399;-72
2023/04/18 02:25:46;;;;;;;8.30;7.60;;;;;;;10.89;51.60;98411.38;8284002;28;20544;-72
2023/04/18 02:29:50;;;;;;;7.70;6.90;;;;;;;11.19;50.93;98405.88;8283484;28;20235;-72
2023/04/18 02:33:53;;;;;;;8.40;7.17;;;;;;;10.98;51.69;98407.56;8283832;28;20234;-72
2023/04/18 02:37:56;;;;;;;8.13;6.90;;;;;;;11.16;51.26;98416.38;8283428;28;20231;-72
2023/04/18 02:42:00;;;;;;;8.47;7.57;;;;;;;10.84;51.56;98415.88;8283287;28;20226;-72
2023/04/18 02:46:04;;;;;;;8.00;7.20;;;;;;;11.04;51.81;98407.34;8283127;28;20238;-72
2023/04/18 02:50:08;;;;;;;8.10;7.37;;;;;;;11.06;51.86;98412.44;8282928;28;20604;-72
2023/04/18 02:54:11;;;;;;;9.67;7.73;;;;;;;10.90;52.09;98405.28;8282865;28;20238;-72
2023/04/18 02:58:14;;;;;;;8.10;7.30;;;;;;;11.13;51.84;98406.97;8282561;28;20297;-72
2023/04/18 03:02:19;;;;;;;7.73;7.03;;;;;;;10.95;52.23;98412.88;8282278;28;20242;-72
2023/04/18 03:06:22;;;;;;;8.03;7.33;;;;;;;11.09;52.24;98401.97;8281276;28;20235;-72
2023/04/18 03:10:25;;;;;;;9.00;7.67;;;;;;;10.78;53.00;98410.09;8282501;28;20241;-72
2023/04/18 03:14:29;;;;;;;8.23;7.33;;;;;;;10.88;53.14;98408.84;8282277;28;20584;-72
2023/04/18 03:18:33;;;;;;;8.33;7.63;;;;;;;11.05;53.03;98410.78;8282263;28;20242;-72
2023/04/18 03:22:35;;;;;;;8.63;7.83;;;;;;;11.16;52.39;98416.38;8282069;28;20242;-72
2023/04/18 03:26:38;;;;;;;8.20;7.40;;;;;;;10.92;52.68;98410.41;8282168;28;20286;-72
2023/04/18 03:30:41;;;;;;;9.17;8.07;;;;;;;10.97;53.13;98411.06;8281561;28;20242;-72
2023/04/18 03:34:45;;;;;;;8.10;7.40;;;;;;;10.94;52.83;98416.38;8281814;28;20406;-72
2023/04/18 03:38:48;;;;;;;8.27;7.47;;;;;;;11.08;53.21;98408.91;8281741;28;20298;-72
2023/04/18 03:42:51;;;;;;;8.53;7.73;;;;;;;11.04;53.51;98409.06;8281751;28;20526;-72
2023/04/18 03:46:54;;;;;;;8.80;8.00;;;;;;;11.09;53.25;98414.94;8281519;28;20471;-72
2023/04/18 03:50:59;;;;;;;8.03;7.33;;;;;;;10.93;53.48;98391.38;8281367;28;20322;-72
2023/04/18 03:55:06;;;;;;;9.00;8.10;;;;;;;11.12;53.33;98412.22;8281496;28;20294;-72
2023/04/18 03:59:10;;;;;;;8.50;7.70;;;;;;;11.11;53.49;98423.50;8281483;28;20238;-72
2023/04/18 04:03:15;;;;;;;8.60;7.80;;;;;;;11.19;53.22;98424.03;8281116;28;20326;-72
2023/04/18 04:07:21;;;;;;;9.77;8.37;;;;;;;11.21;53.30;98427.41;8280977;28;20241;-72
2023/04/18 04:11:24;;;;;;;9.00;8.10;;;;;;;11.20;53.76;98424.88;8281231;28;20257;-72
2023/04/18 04:15:27;;;;;;;8.83;7.93;;;;;;;11.16;53.78;98426.75;8281121;28;20227;-72
2023/04/18 04:19:29;;;;;;;9.27;8.37;;;;;;;11.08;53.89;98426.19;8286918;28;20432;-72
2023/04/18 04:23:33;;;;;;;8.33;7.53;;;;;;;11.33;53.81;98426.09;8287566;28;20231;-72
2023/04/18 04:27:37;;;;;;;8.97;8.07;;;;;;;11.27;53.67;98427.16;8286763;28;20235;-72
2023/04/18 04:31:41;;;;;;;8.87;8.07;;;;;;;11.18;53.99;98432.72;8286614;28;20322;-73
2023/04/18 04:35:45;;;;;;;9.00;8.10;;;;;;;11.13;54.12;98429.44;8287038;28;20227;-72
2023/04/18 04:39:49;;;;;;;9.57;8.60;;;;;;;11.25;54.06;98441.09;8286985;28;20234;-72
2023/04/18 04:43:52;;;;;;;9.07;8.17;;;;;;;11.22;54.29;98443.81;8286763;28;20234;-73
2023/04/18 04:47:55;;;;;;;9.90;8.93;;;;;;;11.29;54.38;98442.63;8286552;28;20230;-73
2023/04/18 04:51:58;;;;;;;10.37;8.77;;;;;;;11.20;54.94;98445.63;8286340;28;20231;-73
2023/04/18 04:56:05;;;;;;;9.77;8.83;;;;;;;11.36;54.40;98449.28;8286362;28;20227;-73
2023/04/18 05:00:13;;;;;;;10.00;9.00;;;;;;;11.00;55.35;98449.81;8286267;28;20231;-73
2023/04/18 05:04:16;;;;;;;10.53;9.43;;;;;;;11.35;54.44;98452.78;8286124;28;20239;-73
2023/04/18 05:08:20;;;;;;;9.93;9.03;;;;;;;11.44;54.43;98454.16;8285810;28;20231;-73
2023/04/18 05:12:27;;;;;;;10.10;9.10;;;;;;;11.46;54.23;98442.84;8286030;28;20242;-73
2023/04/18 05:16:30;;;;;;;9.93;9.03;;;;;;;11.47;54.62;98459.22;8286091;28;20234;-73
2023/04/18 05:20:33;;;;;;;10.50;9.40;;;;;;;11.38;54.95;98444.03;8285605;28;20277;-74
2023/04/18 05:24:36;;;;;;;13.47;9.57;;;;;;;11.49;54.40;98447.03;8285537;28;20235;-74
2023/04/18 05:28:40;;;;;;;10.70;9.60;;;;;;;11.58;54.76;98459.66;8284752;28;20242;-73
2023/04/18 05:32:43;;;;;;;10.37;9.37;;;;;;;11.34;55.15;98459.72;8285397;28;20230;-73
2023/04/18 05:36:47;;;;;;;10.93;9.83;;;;;;;11.58;55.19;98464.84;8285486;28;20238;-73
2023/04/18 05:40:50;;;;;;;12.40;10.80;;;;;;;11.51;55.26;98473.75;8285148;28;20230;-73
2023/04/18 05:44:55;;;;;;;12.77;10.93;;;;;;;11.45;55.79;98472.25;8285277;28;20417;-73
2023/04/18 05:48:58;;;;;;;11.83;10.33;;;;;;;11.55;55.42;98475.31;8284997;28;20262;-73
2023/04/18 05:53:01;;;;;;;11.50;10.27;;;;;;;11.61;55.49;98467.28;8284861;28;20234;-73
2023/04/18 05:57:03;;;;;;;12.77;10.60;;;;;;;11.39;56.14;98467.31;8284806;28;20223;-73
2023/04/18 06:01:08;;;;;;;11.13;9.93;;;;;;;11.60;55.78;98464.78;8284663;28;20235;-73
2023/04/18 06:05:12;;;;;;;11.73;10.23;;;;;;;11.55;55.71;98468.38;8283825;28;20231;-73
2023/04/18 06:09:15;;;;;;;11.67;10.47;;;;;;;11.43;56.25;98483.59;8284120;28;20242;-73
2023/04/18 06:13:17;;;;;;;12.17;10.87;;;;;;;11.78;55.41;98479.56;8283569;28;20241;-73
2023/04/18 06:17:22;;;;;;;11.90;10.60;;;;;;;11.76;55.57;98481.41;8283697;28;20242;-73
2023/04/18 06:21:25;;;;;;;12.40;11.10;;;;;;;11.91;55.21;98483.38;8283876;28;20540;-73
2023/04/18 06:25:28;;;;;;;11.63;10.43;;;;;;;11.99;55.36;98485.66;8283423;28;20235;-73
2023/04/18 06:29:32;;;;;;;12.07;10.70;;;;;;;12.22;54.92;98487.31;8283531;28;20484;-73
2023/04/18 06:33:37;;;;;;;12.40;11.03;;;;;;;12.21;55.08;98484.78;8283267;28;20238;-73
2023/04/18 06:37:42;;;;;;;10.67;9.57;;;;;;;12.30;54.86;98493.00;8282967;28;20227;-73
2023/04/18 06:41:45;;;;;;;12.43;11.17;;;;;;;12.27;54.92;98495.72;8283027;28;20534;-72
2023/04/18 06:45:48;;;;;;;12.37;11.07;;;;;;;12.24;55.17;98497.59;8283405;28;20230;-73
2023/04/18 06:49:52;;;;;;;12.83;11.37;;;;;;;12.19;55.15;98484.84;8282793;28;20238;-74
2023/04/18 06:53:55;;;;;;;12.23;10.77;;;;;;;12.44;55.28;98494.16;8283101;28;20234;-74
2023/04/18 06:57:59;;;;;;;11.33;9.97;;;;;;;12.68;54.48;98503.47;8283052;28;20227;-73
2023/04/18 07:02:01;;;;;;;10.87;9.27;;;;;;;13.69;52.15;98502.34;8282568;28;20235;-73
2023/04/18 07:06:07;;;;;;;10.87;9.70;;;;;;;13.64;51.97;98504.31;8282011;28;20241;-73
2023/04/18 07:10:10;;;;;;;10.87;9.77;;;;;;;13.47;52.29;98498.16;8282344;28;20228;-73
2023/04/18 07:14:13;;;;;;;10.80;9.70;;;;;;;13.45;51.77;98517.38;8282293;28;20250;-73
2023/04/18 07:18:16;;;;;;;9.77;8.87;;;;;;;13.63;51.32;98502.63;8281855;28;20228;-73
2023/04/18 07:22:37;;;;;;;9.53;8.63;;;;;;;13.39;51.96;98512.47;8281658;28;20240;-73
2023/04/18 07:26:40;;;;;;;9.63;8.63;;;;;;;13.01;52.24;98518.47;8282083;28;20221;-74
2023/04/18 07:30:43;;;;;;;9.33;8.43;;;;;;;13.52;51.70;98521.38;8281729;28;20243;-74
2023/04/18 07:34:46;;;;;;;8.10;7.40;;;;;;;13.55;51.84;98516.00;8281550;28;20230;-73
2023/04/18 07:38:54;;;;;;;7.70;7.00;;;;;;;14.44;50.38;98522.03;8281869;28;20236;-73
2023/04/18 07:42:56;;;;;;;7.73;7.03;;;;;;;14.30;50.51;98519.28;8281412;28;20229;-72
2023/04/18 07:46:59;;;;;;;6.80;6.20;;;;;;;15.86;47.07;98508.38;8281610;28;20238;-72
2023/04/18 07:51:02;;;;;;;6.17;5.60;;;;;;;15.78;57.07;98503.59;8280706;28;20247;-72
2023/04/18 07:55:08;;;;;;;6.37;5.77;;;;;;;16.07;57.54;98509.75;8281292;28;20527;-71
2023/04/18 07:59:11;;;;;;;5.60;5.10;;;;;;;17.46;52.42;98496.09;8281393;28;20227;-71
2023/04/18 08:03:14;;;;;;;6.83;6.30;;;;;;;17.62;45.74;98509.91;8280852;28;20251;-73
2023/04/18 08:07:20;;;;;;;7.70;6.90;;;;;;;16.22;45.97;98511.47;8280239;28;20255;-74
2023/04/18 08:11:24;;;;;;;8.20;7.50;;;;;;;15.17;47.57;98518.25;8280742;28;20242;-74
2023/04/18 08:15:30;;;;;;;8.43;7.53;;;;;;;15.48;46.89;98513.94;8280889;28;20237;-74
2023/04/18 08:19:33;;;;;;;7.67;7.07;;;;;;;15.14;48.19;98521.03;8280804;28;20302;-74
2023/04/18 08:23:35;;;;;;;7.87;7.17;;;;;;;15.28;47.97;98513.28;8280702;28;20227;-74
2023/04/18 08:27:40;;;;;;;6.77;6.17;;;;;;;15.03;48.69;98519.84;8280838;28;20230;-74
2023/04/18 08:31:43;;;;;;;8.53;7.73;;;;;;;14.18;50.90;98517.28;8280761;28;20239;-74
2023/04/18 08:35:45;;;;;;;7.20;6.50;;;;;;;14.44;49.88;98521.19;8280320;28;20363;-74
2023/04/18 08:39:48;;;;;;;7.47;6.87;;;;;;;14.63;48.98;98536.75;8280637;28;20253;-73
2023/04/18 08:43:52;;;;;;;7.40;6.80;;;;;;;14.62;49.00;98519.41;8281008;28;20227;-74
2023/04/18 08:48:00;;;;;;;8.33;7.47;;;;;;;14.59;49.12;98524.81;8280899;28;20354;-74
2023/04/18 08:52:05;;;;;;;7.77;7.17;;;;;;;14.78;48.43;98527.28;8280416;28;20289;-74
2023/04/18 08:56:09;;;;;;;7.20;6.53;;;;;;;15.07;48.65;98520.50;8280508;28;20231;-74
2023/04/18 09:00:15;;;;;;;7.53;6.90;;;;;;;15.45;47.07;98513.19;8280262;28;20231;-74
2023/04/18 09:04:33;;;;;;;6.87;6.27;;;;;;;15.18;46.83;98514.72;8281899;28;20437;-74
2023/04/18 09:08:37;;;;;;;6.37;5.87;;;;;;;15.78;47.15;98521.88;8285891;28;20223;-73
2023/04/18 09:12:48;;;;;;;7.03;6.43;;;;;;;15.33;48.10;98519.09;8286097;28;20239;-73
2023/04/18 09:16:54;;;;;;;6.43;5.93;;;;;;;15.21;48.43;98519.75;8285536;28;20232;-73
2023/04/18 09:21:17;;;;;;;6.13;5.63;;;;;;;15.21;48.69;98522.38;8285742;28;20576;-73
2023/04/18 09:25:33;;;;;;;6.07;5.43;;;;;;;15.36;48.53;98525.91;8285125;28;20254;-73
2023/04/18 09:29:45;;;;;;;6.60;6.10;;;;;;;15.36;48.15;98525.91;8285556;28;20425;-73
2023/04/18 09:33:55;;;;;;;4.93;4.63;;;;;;;15.37;47.73;98514.56;8285406;28;20310;-73
2023/04/18 09:38:00;;;;;;;5.50;5.00;;;;;;;15.31;48.86;98517.53;8285439;28;20496;-73
2023/04/18 09:42:03;;;;;;;5.20;4.70;;;;;;;15.34;48.35;98519.94;8285061;28;20531;-73
2023/04/18 09:46:07;;;;;;;4.90;4.60;;;;;;;15.24;49.06;98515.22;8284858;28;20229;-73
2023/04/18 09:50:20;;;;;;;4.70;4.33;;;;;;;15.44;48.17;98508.91;8284723;28;20231;-73
2023/04/18 09:54:26;;;;;;;5.00;4.60;;;;;;;15.21;48.53;98510.19;8284282;28;20239;-73
2023/04/18 09:58:32;;;;;;;5.30;4.90;;;;;;;15.18;48.85;98509.50;8284382;28;20233;-73
2023/04/18 10:02:47;;;;;;;5.17;4.67;;;;;;;14.54;48.36;98436.38;8284352;28;20235;-73
2023/04/18 10:06:52;;;;;;;5.17;4.77;;;;;;;15.08;48.84;98508.31;8284402;28;20242;-73
2023/04/18 10:10:57;;;;;;;4.57;4.27;;;;;;;14.80;49.30;98517.63;8284360;28;20244;-73
2023/04/18 10:15:03;;;;;;;5.07;4.67;;;;;;;14.90;49.02;98512.75;8283753;28;20284;-73
2023/04/18 10:19:23;;;;;;;5.10;4.70;;;;;;;15.30;49.26;98514.03;8284016;28;20223;-73
2023/04/18 10:23:47;;;;;;;4.67;4.27;;;;;;;14.92;48.70;98522.16;8283365;28;20418;-73
2023/04/18 10:27:58;;;;;;;4.87;4.50;;;;;;;15.17;48.94;98513.03;8283909;28;20227;-73
2023/04/18 10:32:06;;;;;;;4.90;4.50;;;;;;;14.95;49.50;98513.38;8283311;28;20238;-73
2023/04/18 10:36:17;;;;;;;5.30;4.80;;;;;;;14.82;48.85;98506.19;8283253;28;20286;-73
2023/04/18 10:40:34;;;;;;;5.07;4.67;;;;;;;14.73;49.74;98508.44;8265478;28;20282;-73
2023/04/18 10:44:37;;;;;;;8.30;5.30;;;;;;;14.58;49.41;98513.53;8283087;28;20227;-73
2023/04/18 10:48:39;;;;;;;4.20;3.90;;;;;;;15.30;49.14;98502.78;8283174;28;20222;-73
2023/04/18 10:52:43;;;;;;;4.27;3.87;;;;;;;15.98;47.57;98492.84;8282650;28;20231;-73
2023/04/18 10:56:53;;;;;;;4.70;4.30;;;;;;;15.67;48.01;98487.66;8282559;28;20231;-73
2023/04/18 11:00:56;;;;;;;4.37;4.07;;;;;;;15.54;47.39;98490.13;8282662;28;20224;-73
2023/04/18 11:05:03;;;;;;;4.80;4.27;;;;;;;15.35;48.08;98493.75;8282168;28;20237;-73
2023/04/18 11:09:09;;;;;;;5.00;4.57;;;;;;;15.44;49.74;98485.44;8282349;28;20324;-72
2023/04/18 11:13:14;;;;;;;5.30;4.80;;;;;;;15.33;49.09;98479.13;8282150;28;20235;-73
2023/04/18 11:17:21;;;;;;;4.70;4.30;;;;;;;15.68;48.70;98476.28;8282350;28;20439;-72
2023/04/18 11:21:26;;;;;;;5.90;5.40;;;;;;;15.45;47.61;98444.50;8281556;28;20242;-72
2023/04/18 11:25:35;;;;;;;4.90;4.50;;;;;;;16.15;48.08;98455.28;8281583;28;20247;-72
2023/04/18 11:29:39;;;;;;;5.97;5.43;;;;;;;16.67;48.33;98472.19;8281920;28;20423;-71
2023/04/18 11:33:42;;;;;;;5.90;5.30;;;;;;;17.00;48.01;98471.06;8281912;28;20546;-72
2023/04/18 11:37:45;;;;;;;5.83;5.30;;;;;;;16.91;45.93;98459.41;8281661;28;20229;-73
2023/04/18 11:41:50;;;;;;;5.73;5.23;;;;;;;16.53;47.04;98456.53;8281537;28;20428;-72
2023/04/18 11:45:57;;;;;;;6.80;6.20;;;;;;;15.94;46.45;98459.16;8280864;28;20227;-72
2023/04/18 11:50:01;;;;;;;6.50;6.00;;;;;;;15.59;47.91;98425.44;8280758;28;20230;-73
2023/04/18 11:54:04;;;;;;;6.83;6.23;;;;;;;15.68;47.44;98469.28;8280550;28;20572;-73
2023/04/18 11:58:07;;;;;;;7.10;6.50;;;;;;;15.73;48.11;98467.31;8280729;28;20251;-73
2023/04/18 12:02:11;;;;;;;7.07;6.47;;;;;;;16.08;46.98;98464.41;8280840;28;20241;-73
2023/04/18 12:06:19;;;;;;;7.37;6.67;;;;;;;15.81;47.10;98472.09;8280016;28;20223;-73
2023/04/18 12:10:26;;;;;;;6.97;6.37;;;;;;;15.88;46.51;98472.56;8280635;28;20234;-73
2023/04/18 12:14:32;;;;;;;7.10;6.50;;;;;;;15.76;46.40;98427.97;8280465;28;20512;-73
2023/04/18 12:18:36;;;;;;;6.30;5.80;;;;;;;16.39;46.42;98447.75;8280559;28;20415;-73
2023/04/18 12:22:43;;;;;;;6.50;6.00;;;;;;;16.79;45.19;98457.53;8280112;28;20340;-73
2023/04/18 12:26:46;;;;;;;6.90;6.30;;;;;;;16.42;44.96;98465.00;8280701;28;20414;-73
2023/04/18 12:30:49;;;;;;;8.63;7.73;;;;;;;16.29;44.32;98456.22;8280268;28;20441;-73
2023/04/18 12:34:53;;;;;;;6.50;6.00;;;;;;;17.62;41.29;98443.59;8280137;28;20473;-73
2023/04/18 12:38:56;;;;;;;6.53;6.00;;;;;;;16.55;43.31;98442.41;8283525;28;20256;-73
2023/04/18 12:42:58;;;;;;;6.27;5.77;;;;;;;17.69;41.48;98442.25;8286786;28;20241;-73
2023/04/18 12:47:05;;;;;;;5.80;5.40;;;;;;;17.03;44.50;98438.66;8286720;28;20398;-73
2023/04/18 12:51:09;;;;;;;6.10;5.60;;;;;;;16.84;43.55;98441.59;8286294;28;20300;-73
2023/04/18 12:55:13;;;;;;;5.93;5.43;;;;;;;16.79;43.91;98440.06;8286048;28;20245;-73
2023/04/18 12:59:16;;;;;;;5.93;5.43;;;;;;;16.83;43.00;98437.28;8285869;28;20226;-73
2023/04/18 13:03:18;;;;;;;5.27;4.87;;;;;;;16.95;43.44;98439.16;8285216;28;20234;-73
2023/04/18 13:07:23;;;;;;;5.27;4.87;;;;;;;17.07;44.39;98435.75;8285928;28;20427;-73
2023/04/18 13:11:27;;;;;;;6.43;5.93;;;;;;;16.64;45.07;98427.94;8285785;28;20465;-73
2023/04/18 13:15:30;;;;;;;6.03;5.63;;;;;;;16.49;45.30;98436.75;8285911;28;20294;-73
2023/04/18 13:19:33;;;;;;;6.43;5.93;;;;;;;16.31;46.15;98434.28;8285738;28;20238;-72
2023/04/18 13:23:39;;;;;;;6.67;5.80;;;;;;;16.24;46.58;98438.22;8285307;28;20271;-73
2023/04/18 13:27:43;;;;;;;6.70;6.10;;;;;;;16.00;47.26;98440.50;8284966;28;20230;-74
2023/04/18 13:31:46;;;;;;;5.70;5.20;;;;;;;15.61;47.26;98441.84;8284908;28;20330;-74
2023/04/18 13:35:49;;;;;;;5.80;5.30;;;;;;;15.36;47.78;98435.41;8285126;28;20228;-73
2023/04/18 13:39:53;;;;;;;6.10;5.60;;;;;;;15.19;47.83;98448.56;8284743;28;20223;-73
2023/04/18 13:43:56;;;;;;;5.93;5.07;;;;;;;15.11;48.75;98441.16;8284354;28;20509;-73
2023/04/18 13:47:59;;;;;;;5.80;5.30;;;;;;;15.23;48.49;98460.50;8284893;28;20425;-73
2023/04/18 13:52:03;;;;;;;6.17;5.67;;;;;;;14.91;48.82;98457.91;8283819;28;20227;-72
2023/04/18 13:56:07;;;;;;;7.30;5.70;;;;;;;15.29;48.48;98467.16;8284362;28;20458;-73
2023/04/18 14:00:12;;;;;;;5.70;5.20;;;;;;;15.02;48.93;98459.94;8284419;28;20234;-72
2023/04/18 14:04:15;;;;;;;6.80;6.20;;;;;;;14.71;49.58;98465.97;8283790;28;20233;-73
2023/04/18 14:08:18;;;;;;;6.07;5.57;;;;;;;14.98;48.96;98450.59;8283978;28;20223;-73
2023/04/18 14:12:23;;;;;;;6.67;6.17;;;;;;;14.62;49.97;98472.50;8284160;28;20227;-73
2023/04/18 14:16:27;;;;;;;7.00;6.23;;;;;;;14.68;50.10;98466.13;8284005;28;20227;-72
2023/04/18 14:20:33;;;;;;;6.83;6.20;;;;;;;14.58;50.41;98474.44;8283546;28;20235;-72
2023/04/18 14:24:36;;;;;;;7.13;6.53;;;;;;;14.89;49.88;98480.63;8283348;28;20235;-73
2023/04/18 14:28:41;;;;;;;7.23;6.63;;;;;;;14.66;50.12;98472.28;8283358;28;20530;-72
2023/04/18 14:32:44;;;;;;;7.57;6.87;;;;;;;15.09;49.08;98482.16;8283223;28;20234;-73
2023/04/18 14:36:47;;;;;;;7.83;7.13;;;;;;;15.49;48.44;98476.50;8282708;28;20237;-73
2023/04/18 14:40:53;;;;;;;6.70;6.20;;;;;;;16.33;47.11;98474.22;8282648;28;20234;-73
2023/04/18 14:44:57;;;;;;;7.37;6.67;;;;;;;16.52;46.78;98483.59;8283187;28;20227;-73
2023/04/18 14:49:00;;;;;;;7.70;7.00;;;;;;;15.82;47.98;98478.97;8282725;28;20258;-72
2023/04/18 14:53:03;;;;;;;7.77;7.07;;;;;;;15.67;47.85;98478.06;8282957;28;20227;-73
2023/04/18 14:57:07;;;;;;;8.40;7.60;;;;;;;15.88;47.81;98480.38;8282388;28;20228;-72
2023/04/18 15:01:11;;;;;;;7.60;6.90;;;;;;;15.22;48.61;98471.88;8281895;28;20232;-72
2023/04/18 15:05:14;;;;;;;6.53;6.03;;;;;;;15.64;48.57;98473.84;8282252;28;20241;-72
2023/04/18 15:09:17;;;;;;;7.57;6.73;;;;;;;15.62;48.72;98480.94;8282173;28;20234;-71
2023/04/18 15:13:20;;;;;;;6.50;6.00;;;;;;;15.83;47.90;98485.88;8281480;28;20237;-71
2023/04/18 15:17:28;;;;;;;7.00;6.40;;;;;;;15.73;48.52;98475.13;8281727;28;20238;-72
2023/04/18 15:21:30;;;;;;;7.17;6.57;;;;;;;15.18;48.27;98476.44;8281445;28;20244;-71
2023/04/18 15:25:34;;;;;;;6.73;6.13;;;;;;;15.42;48.69;98474.25;8281313;28;20230;-71
2023/04/18 15:29:37;;;;;;;6.53;5.93;;;;;;;14.80;49.62;98479.34;8281547;28;20226;-71
2023/04/18 15:33:41;;;;;;;7.30;6.70;;;;;;;15.24;49.38;98477.84;8281231;28;20231;-71
2023/04/18 15:37:44;;;;;;;7.57;6.87;;;;;;;15.05;48.98;98483.25;8281231;28;20224;-71
2023/04/18 15:41:47;;;;;;;7.53;6.83;;;;;;;14.70;50.20;98490.34;8281047;28;20419;-71
2023/04/18 15:45:50;;;;;;;6.53;5.93;;;;;;;15.08;49.86;98490.06;8281320;28;20245;-71
2023/04/18 15:49:55;;;;;;;7.00;6.40;;;;;;;14.96;50.07;98486.34;8280880;28;20290;-71
2023/04/18 15:53:57;;;;;;;6.60;6.10;;;;;;;14.91;49.63;98498.78;8273741;28;20234;-72
2023/04/18 15:58:00;;;;;;;6.60;6.00;;;;;;;14.58;49.98;98499.66;8279985;28;20288;-71
2023/04/18 16:02:05;;;;;;;7.17;6.53;;;;;;;14.61;50.26;98499.50;8280765;28;20241;-71
2023/04/18 16:06:09;;;;;;;6.23;5.63;;;;;;;15.27;49.69;98498.56;8280297;28;20538;-71
2023/04/18 16:10:14;;;;;;;6.30;5.80;;;;;;;15.23;49.20;98505.72;8280860;28;20231;-71
2023/04/18 16:14:16;;;;;;;6.83;6.17;;;;;;;14.57;50.23;98518.84;8284288;28;20246;-71
2023/04/18 16:18:21;;;;;;;7.90;7.20;;;;;;;14.29;50.94;98509.78;8286620;28;20223;-71
2023/04/18 16:22:26;;;;;;;8.37;7.60;;;;;;;14.74;50.82;98517.94;8286847;28;20317;-72
2023/04/18 16:26:29;;;;;;;8.70;7.90;;;;;;;14.57;50.70;98518.84;8286768;28;20234;-70
2023/04/18 16:30:32;;;;;;;8.70;7.90;;;;;;;14.35;51.22;98522.47;8286605;28;20498;-71
2023/04/18 16:34:35;;;;;;;7.50;6.80;;;;;;;14.39;51.02;98531.00;8286620;28;20550;-71
2023/04/18 16:38:39;;;;;;;7.63;6.67;;;;;;;14.18;51.35;98525.94;8286193;28;20239;-70
2023/04/18 16:42:41;;;;;;;8.03;7.27;;;;;;;14.23;51.43;98529.16;8285950;28;20257;-72
2023/04/18 16:46:44;;;;;;;7.40;6.70;;;;;;;14.57;50.75;98535.31;8286138;28;20256;-71
2023/04/18 16:50:47;;;;;;;8.20;7.50;;;;;;;14.44;51.13;98537.66;8286218;28;20223;-72
2023/04/18 16:54:52;;;;;;;8.37;7.60;;;;;;;14.58;51.02;98533.53;8285817;28;20548;-72
2023/04/18 16:58:55;;;;;;;8.47;7.67;;;;;;;14.41;51.21;98531.75;8266974;28;20230;-71
2023/04/18 17:02:58;;;;;;;9.10;7.73;;;;;;;14.06;51.98;98547.41;8285282;28;20242;-72
2023/04/18 17:07:01;;;;;;;9.47;7.70;;;;;;;14.14;52.38;98544.41;8285233;28;20229;-72
2023/04/18 17:11:06;;;;;;;9.30;8.40;;;;;;;13.79;52.95;98550.44;8285413;28;20233;-72
2023/04/18 17:15:10;;;;;;;8.87;7.97;;;;;;;14.07;52.39;98568.16;8284964;28;20231;-71
2023/04/18 17:19:13;;;;;;;11.90;9.47;;;;;;;13.00;54.59;98557.53;8285057;28;20226;-71
2023/04/18 17:23:16;;;;;;;10.23;9.13;;;;;;;13.83;52.99;98551.97;8285085;28;20233;-71
2023/04/18 17:27:20;;;;;;;10.67;9.30;;;;;;;13.57;52.35;98552.34;8283637;28;20226;-71
2023/04/18 17:31:23;;;;;;;10.43;9.43;;;;;;;13.23;54.03;98559.97;8284340;28;20236;-71
2023/04/18 17:35:26;;;;;;;12.03;9.77;;;;;;;13.47;53.63;98560.59;8284486;28;20521;-71
2023/04/18 17:39:31;;;;;;;10.93;9.77;;;;;;;13.32;53.93;98550.06;8284257;28;20233;-71
2023/04/18 17:43:35;;;;;;;10.40;8.97;;;;;;;13.78;52.86;98558.31;8283873;28;20545;-72
2023/04/18 17:47:39;;;;;;;10.70;9.60;;;;;;;13.34;54.17;98563.84;8284083;28;20240;-71
2023/04/18 17:51:42;;;;;;;11.37;10.00;;;;;;;13.19;53.76;98552.34;8284418;28;20229;-74
2023/04/18 17:55:47;;;;;;;11.13;9.20;;;;;;;13.58;53.10;98574.88;8283800;28;20545;-70
2023/04/18 17:59:52;;;;;;;13.03;10.13;;;;;;;13.01;54.45;98588.66;8283965;28;20524;-71
2023/04/18 18:03:59;;;;;;;12.63;10.47;;;;;;;12.76;55.26;98588.06;8283741;28;20322;-73
2023/04/18 18:08:01;;;;;;;11.77;10.30;;;;;;;13.30;54.02;98584.78;8283851;28;20231;-72
2023/04/18 18:12:05;;;;;;;13.47;10.23;;;;;;;13.35;53.01;98586.34;8283167;28;20306;-71
2023/04/18 18:16:09;;;;;;;18.20;16.50;;;;;;;13.21;64.43;98566.13;8283814;28;20237;-71
2023/04/18 18:20:16;;;;;;;15.70;12.20;;;;;;;15.39;65.93;98591.00;8282988;28;20528;-71
2023/04/18 18:24:19;;;;;;;11.10;9.90;;;;;;;14.51;57.99;98600.75;8282430;28;20228;-71
2023/04/18 18:28:22;;;;;;;11.37;8.90;;;;;;;15.06;54.15;98581.44;8283076;28;20237;-71
2023/04/18 18:32:28;;;;;;;10.17;8.97;;;;;;;14.82;50.50;98610.47;8281397;28;20234;-72
2023/04/18 18:36:31;;;;;;;11.10;9.70;;;;;;;14.10;51.72;98608.81;8282223;28;20350;-71
2023/04/18 18:40:34;;;;;;;10.93;9.43;;;;;;;13.21;53.56;98623.34;8283124;28;20234;-70
2023/04/18 18:44:36;;;;;;;10.80;9.17;;;;;;;12.95;55.08;98627.09;8282467;28;20250;-70
2023/04/18 18:48:41;;;;;;;11.37;9.77;;;;;;;12.98;54.83;98622.59;8282621;28;20224;-70
2023/04/18 18:52:46;;;;;;;10.77;9.10;;;;;;;12.98;55.22;98635.59;8282615;28;20236;-70
2023/04/18 18:56:50;;;;;;;11.17;9.70;;;;;;;13.08;54.41;98634.28;8282223;28;20237;-70
2023/04/18 19:00:54;;;;;;;10.80;9.07;;;;;;;13.13;54.46;98628.03;8282428;28;20230;-70
2023/04/18 19:04:59;;;;;;;10.00;8.90;;;;;;;13.13;54.63;98633.25;8282367;28;20487;-70
2023/04/18 19:09:03;;;;;;;10.27;8.33;;;;;;;13.15;54.40;98634.03;8282303;28;20528;-71